Terminal Aerodrome Forecast
Issued by NWS Amarillo, TX

Home | Current Version | Previous Version | Text Only | Print | Product List | Glossary On
Versions: 1 2 3 4 5 6 7 8 9 10 11 12
995
FTUS44 KAMA 111720
TAFGUY
TAF
KGUY 111720Z 1118/1218 20008KT P6SM FEW250
     FM120330 03010KT P6SM SKC=

USA.gov is the U.S. government's official web portal to all federal, state and local government web resources and services.